Time;durP1;ratioP1;P1;durP2;ratioP2;P2;SDS_P1;SDS_P2;PMS_P1;PMS_P2;Temp;Humidity;BMP_temperature;BMP_pressure;BME280_temperature;BME280_humidity;BME280_pressure;Samples;Min_cycle;Max_cycle;Signal;HPM_P1;HPM_P2
2022/01/01 12:30:54;;;;;;;5.23;1.47;;;17.10;99.90;;;;;;5084279;28;20538;-76
2022/01/01 12:33:51;;;;;;;3.60;1.73;;;17.20;99.90;;;;;;5089050;28;20415;-75
2022/01/01 12:36:19;;;;;;;2.30;1.57;;;17.40;99.90;;;;;;5144139;22;20514;-75
2022/01/01 12:38:52;;;;;;;4.90;2.63;;;17.30;99.90;;;;;;5059794;28;20440;-76
2022/01/01 12:41:37;;;;;;;3.83;1.90;;;17.50;99.90;;;;;;5070540;28;20420;-75
2022/01/01 12:44:08;;;;;;;2.67;2.00;;;17.60;99.90;;;;;;5069051;28;20438;-76
2022/01/01 12:46:38;;;;;;;1.87;1.33;;;17.50;99.90;;;;;;5070112;28;20413;-76
2022/01/01 12:49:06;;;;;;;2.57;1.30;;;17.40;99.90;;;;;;5069724;28;20851;-76
2022/01/01 12:51:37;;;;;;;2.50;1.40;;;17.30;99.90;;;;;;5070646;28;20765;-75
2022/01/01 12:54:11;;;;;;;4.57;1.57;;;17.50;99.90;;;;;;5071224;28;20755;-76
2022/01/01 12:56:38;;;;;;;1.33;1.20;;;17.70;99.90;;;;;;5070224;28;20432;-77
2022/01/01 12:59:10;;;;;;;3.53;1.50;;;17.70;99.90;;;;;;5069442;28;20443;-77
2022/01/01 13:01:44;;;;;;;2.20;1.47;;;17.80;99.90;;;;;;5070165;28;20498;-76
2022/01/01 13:04:15;;;;;;;1.47;1.03;;;17.80;99.90;;;;;;5085594;28;20993;-76
2022/01/01 13:06:42;;;;;;;1.70;1.40;;;18.00;99.90;;;;;;5069871;28;20414;-76
2022/01/01 13:09:13;;;;;;;2.23;1.50;;;17.90;99.90;;;;;;5069355;28;20460;-77
2022/01/01 13:11:41;;;;;;;4.40;1.73;;;17.70;99.90;;;;;;5069802;28;20427;-77
2022/01/01 13:14:08;;;;;;;2.80;1.90;;;17.80;99.90;;;;;;5068556;28;20812;-77
2022/01/01 13:16:34;;;;;;;2.10;1.70;;;17.80;99.90;;;;;;5069844;28;20417;-77
2022/01/01 13:19:01;;;;;;;2.63;1.70;;;17.50;99.90;;;;;;5069374;28;20436;-77
2022/01/01 13:21:27;;;;;;;4.80;1.83;;;17.50;99.90;;;;;;5069852;28;20436;-78
2022/01/01 13:23:52;;;;;;;2.70;2.00;;;17.40;99.90;;;;;;5068088;28;20834;-77
2022/01/01 13:26:19;;;;;;;2.20;1.60;;;17.20;99.90;;;;;;5069629;28;20174;-77
2022/01/01 13:28:46;;;;;;;1.73;1.47;;;17.10;99.90;;;;;;5067752;28;20206;-78
2022/01/01 13:31:13;;;;;;;1.60;1.50;;;16.90;99.90;;;;;;5068197;28;20424;-78
2022/01/01 13:33:44;;;;;;;2.07;1.50;;;17.00;99.90;;;;;;5069295;28;20420;-78
2022/01/01 13:36:10;;;;;;;4.60;1.53;;;16.50;99.90;;;;;;5069231;28;20442;-78
2022/01/01 13:38:36;;;;;;;2.10;1.60;;;16.50;99.90;;;;;;5067389;28;20447;-78
2022/01/01 13:41:05;;;;;;;4.43;1.70;;;16.50;99.90;;;;;;5062339;28;20231;-77
2022/01/01 13:43:33;;;;;;;1.70;1.33;;;16.60;99.90;;;;;;5056002;28;20170;-77
2022/01/01 13:46:13;;;;;;;2.70;2.03;;;16.70;99.90;;;;;;5055821;28;20530;-78
2022/01/01 13:48:45;;;;;;;2.70;1.63;;;16.80;99.90;;;;;;5055466;28;20428;-77
2022/01/01 13:51:11;;;;;;;1.63;1.53;;;16.70;99.90;;;;;;5071273;28;20457;-78
2022/01/01 13:53:38;;;;;;;1.97;1.77;;;16.60;99.90;;;;;;5055804;28;20424;-78
2022/01/01 13:56:11;;;;;;;2.07;1.33;;;16.50;99.90;;;;;;5055762;28;20420;-77
2022/01/01 13:58:44;;;;;;;2.60;1.50;;;16.40;99.90;;;;;;5055043;28;20526;-77
2022/01/01 14:01:14;;;;;;;1.87;1.53;;;16.40;99.90;;;;;;5055740;28;20440;-76
2022/01/01 14:03:41;;;;;;;2.90;1.60;;;16.10;99.90;;;;;;5153522;22;20501;-76
2022/01/01 14:06:07;;;;;;;2.20;1.50;;;16.10;99.90;;;;;;5074157;28;20478;-76
2022/01/01 14:08:33;;;;;;;2.10;1.47;;;16.20;99.90;;;;;;5075216;28;20424;-76
2022/01/01 14:11:00;;;;;;;4.60;2.00;;;16.20;99.90;;;;;;5075584;28;20501;-76
2022/01/01 14:13:31;;;;;;;2.03;1.83;;;16.10;99.90;;;;;;5058090;28;20529;-76
2022/01/01 14:15:58;;;;;;;3.23;1.83;;;15.80;99.90;;;;;;5065204;28;20412;-76
2022/01/01 14:18:33;;;;;;;4.03;2.57;;;15.80;99.90;;;;;;5063460;28;20449;-75
2022/01/01 14:20:59;;;;;;;5.07;1.80;;;15.70;99.90;;;;;;5058028;28;20426;-76
2022/01/01 14:23:32;;;;;;;2.40;2.03;;;15.60;99.90;;;;;;5055131;28;20416;-75
2022/01/01 14:26:06;;;;;;;2.90;2.17;;;15.50;99.90;;;;;;5055276;28;20500;-75
2022/01/01 14:28:32;;;;;;;4.67;2.30;;;15.50;99.90;;;;;;5053216;28;20451;-76
2022/01/01 14:30:59;;;;;;;2.77;1.53;;;15.50;99.90;;;;;;5053917;28;20878;-75
2022/01/01 14:33:27;;;;;;;2.60;2.40;;;15.40;99.90;;;;;;5054967;28;20423;-75
2022/01/01 14:36:06;;;;;;;4.03;1.90;;;15.30;99.90;;;;;;5053686;28;20455;-75
2022/01/01 14:38:33;;;;;;;3.50;1.90;;;15.10;99.90;;;;;;5112852;23;20490;-75
2022/01/01 14:40:59;;;;;;;3.17;2.20;;;15.10;99.90;;;;;;5013436;28;20432;-75
2022/01/01 14:43:25;;;;;;;2.23;2.00;;;15.10;99.90;;;;;;5030170;28;20430;-75
2022/01/01 14:45:52;;;;;;;2.20;1.70;;;15.00;99.90;;;;;;5013904;28;20426;-75
2022/01/01 14:48:35;;;;;;;3.10;1.90;;;15.00;99.90;;;;;;5014660;28;20449;-75
2022/01/01 14:51:07;;;;;;;2.60;1.90;;;14.90;99.90;;;;;;5014910;28;20428;-75
2022/01/01 14:54:07;;;;;;;2.83;1.60;;;14.80;99.90;;;;;;5013790;28;20407;-75
2022/01/01 14:56:44;;;;;;;3.37;1.90;;;14.70;99.90;;;;;;5014609;28;20422;-76
2022/01/01 14:59:19;;;;;;;2.50;2.20;;;14.70;99.90;;;;;;5014262;28;20485;-76
2022/01/01 15:01:48;;;;;;;3.63;2.20;;;14.60;99.90;;;;;;5014985;28;20468;-76
2022/01/01 15:04:19;;;;;;;4.00;2.53;;;14.40;99.90;;;;;;5013476;28;20914;-76
2022/01/01 15:06:47;;;;;;;3.50;2.50;;;14.40;99.90;;;;;;5014782;28;20414;-75
2022/01/01 15:09:14;;;;;;;3.00;2.60;;;14.30;99.90;;;;;;5014003;28;20462;-76
2022/01/01 15:11:41;;;;;;;3.30;2.03;;;14.30;99.90;;;;;;5013179;28;20509;-76
2022/01/01 15:14:07;;;;;;;3.43;2.00;;;14.20;99.90;;;;;;5014460;28;20416;-75
2022/01/01 15:16:33;;;;;;;2.80;2.20;;;14.30;99.90;;;;;;5014679;28;20418;-76
2022/01/01 15:19:01;;;;;;;3.57;2.50;;;14.20;99.90;;;;;;5013970;28;21130;-75
2022/01/01 15:22:05;;;;;;;3.10;2.20;;;14.00;99.90;;;;;;5014443;28;20421;-75
2022/01/01 15:24:41;;;;;;;7.93;3.67;;;14.10;99.90;;;;;;4996719;28;20418;-75
2022/01/01 15:27:09;;;;;;;2.77;2.57;;;14.10;99.90;;;;;;5014242;28;20402;-75
2022/01/01 15:30:21;;;;;;;3.60;2.47;;;14.10;99.90;;;;;;5013420;28;20509;-76
2022/01/01 15:38:19;;;;;;;4.37;3.27;;;13.60;99.90;;;;;;5013995;28;20644;-76
2022/01/01 15:43:34;;;;;;;3.33;2.40;;;13.40;99.90;;;;;;5014069;28;20457;-75
2022/01/01 15:46:01;;;;;;;5.27;3.53;;;13.50;99.90;;;;;;5013927;28;20417;-75
2022/01/01 15:48:28;;;;;;;3.03;2.50;;;13.30;99.90;;;;;;5028620;28;21064;-75
2022/01/01 15:50:53;;;;;;;4.50;2.83;;;13.20;99.90;;;;;;5013991;28;20422;-75
2022/01/01 15:53:22;;;;;;;7.83;2.97;;;13.20;99.90;;;;;;5013842;28;20786;-75
2022/01/01 15:56:06;;;;;;;2.40;2.20;;;13.20;99.90;;;;;;5013663;28;20271;-75
2022/01/01 15:58:36;;;;;;;3.00;2.30;;;13.10;99.90;;;;;;5013571;28;20444;-75
2022/01/01 16:01:12;;;;;;;4.10;2.87;;;13.10;99.90;;;;;;5013853;28;20927;-75
2022/01/01 16:03:48;;;;;;;2.90;2.07;;;12.90;99.90;;;;;;5013481;28;20422;-75
2022/01/01 16:06:19;;;;;;;6.07;2.50;;;12.80;99.90;;;;;;5013904;28;20422;-75
2022/01/01 16:08:55;;;;;;;3.15;2.45;;;12.80;99.90;;;;;;5013184;28;20492;-75
2022/01/01 16:11:26;;;;;;;3.10;2.13;;;12.80;99.90;;;;;;5013962;28;20237;-75
2022/01/01 16:13:56;;;;;;;4.47;2.47;;;12.60;99.90;;;;;;5012631;28;20203;-75
2022/01/01 16:16:24;;;;;;;6.65;2.50;;;12.60;99.90;;;;;;5013634;28;20172;-75
2022/01/01 16:18:51;;;;;;;3.20;2.10;;;12.60;99.90;;;;;;5013310;28;20249;-75
2022/01/01 16:21:22;;;;;;;2.95;2.05;;;12.50;99.90;;;;;;5013605;28;20410;-74
2022/01/01 16:23:48;;;;;;;3.38;2.58;;;12.50;99.90;;;;;;5012169;28;20197;-75
2022/01/01 16:26:16;;;;;;;3.60;2.17;;;12.50;99.90;;;;;;5013451;28;20187;-75
2022/01/01 16:28:44;;;;;;;5.20;2.50;;;12.50;99.90;;;;;;5012923;28;20262;-75
2022/01/01 16:31:10;;;;;;;3.15;2.20;;;12.40;99.90;;;;;;5012146;28;20176;-74
2022/01/01 16:33:42;;;;;;;4.10;2.63;;;12.50;99.90;;;;;;5013211;28;20640;-75
2022/01/01 16:36:08;;;;;;;4.78;2.90;;;12.40;99.90;;;;;;5013195;28;20174;-75
2022/01/01 16:38:36;;;;;;;3.77;3.40;;;12.30;99.90;;;;;;5012753;28;20225;-75
2022/01/01 16:41:10;;;;;;;2.80;2.30;;;12.30;99.90;;;;;;5013327;28;20422;-74
2022/01/01 16:43:57;;;;;;;4.10;3.00;;;12.20;99.90;;;;;;5013201;28;20178;-75
2022/01/01 16:46:41;;;;;;;5.32;2.75;;;12.20;99.90;;;;;;5013199;28;20175;-75
2022/01/01 16:49:19;;;;;;;3.65;2.30;;;12.10;99.90;;;;;;5012818;28;20191;-75
2022/01/01 16:51:51;;;;;;;5.85;3.00;;;12.10;99.90;;;;;;5013186;28;20266;-74
2022/01/01 16:54:18;;;;;;;5.40;2.60;;;12.00;99.90;;;;;;5011999;28;20187;-75
2022/01/01 16:57:06;;;;;;;3.97;2.67;;;11.90;99.90;;;;;;5014408;28;20184;-75
2022/01/01 16:59:33;;;;;;;6.13;2.60;;;11.90;99.90;;;;;;5012729;28;20199;-75
2022/01/01 17:02:08;;;;;;;5.13;2.95;;;11.90;99.90;;;;;;5013404;28;20585;-75
2022/01/01 17:04:36;;;;;;;3.47;2.80;;;11.80;99.90;;;;;;5013391;28;20171;-75
2022/01/01 17:07:03;;;;;;;4.78;3.00;;;11.80;99.90;;;;;;5011770;28;20222;-74
2022/01/01 17:09:30;;;;;;;4.00;3.40;;;11.80;99.90;;;;;;5012751;28;20212;-75
2022/01/01 17:11:56;;;;;;;5.72;2.90;;;11.80;99.90;;;;;;5011865;28;20179;-75
2022/01/01 17:14:22;;;;;;;4.20;3.53;;;11.70;99.90;;;;;;5012998;28;20720;-75
2022/01/01 17:17:07;;;;;;;6.22;2.95;;;11.60;99.90;;;;;;5015516;28;20222;-74
2022/01/01 17:20:01;;;;;;;4.85;2.97;;;11.60;99.90;;;;;;5016402;28;20253;-75
2022/01/01 17:22:46;;;;;;;5.75;3.38;;;11.60;99.90;;;;;;5016467;28;20194;-75
2022/01/01 17:25:14;;;;;;;5.65;4.05;;;11.60;99.90;;;;;;5016715;28;20731;-74
2022/01/01 17:27:55;;;;;;;7.43;4.57;;;11.60;99.90;;;;;;5016102;28;20298;-75
2022/01/01 17:30:21;;;;;;;4.78;3.33;;;11.60;99.90;;;;;;5016473;28;20226;-74
2022/01/01 17:33:03;;;;;;;4.72;3.50;;;11.70;99.90;;;;;;5016514;28;20180;-75
2022/01/01 17:36:03;;;;;;;3.22;2.75;;;11.60;99.90;;;;;;5016332;28;20234;-74
2022/01/01 17:41:04;;;;;;;4.70;3.17;;;11.60;99.90;;;;;;5016539;28;20179;-75
2022/01/01 17:43:34;;;;;;;4.65;3.00;;;11.50;99.90;;;;;;5016095;28;20171;-74
2022/01/01 17:46:00;;;;;;;4.55;2.90;;;11.50;99.90;;;;;;5016267;28;20202;-75
2022/01/01 17:48:39;;;;;;;7.18;6.47;;;11.50;99.90;;;;;;5014526;28;20199;-74
2022/01/01 17:51:09;;;;;;;4.00;2.92;;;11.50;99.90;;;;;;5031272;28;20214;-74
2022/01/01 17:53:38;;;;;;;4.55;3.42;;;11.50;99.90;;;;;;5016129;28;20168;-74
2022/01/01 17:56:07;;;;;;;4.65;3.45;;;11.50;99.90;;;;;;5014618;28;20187;-74
2022/01/01 17:58:38;;;;;;;6.47;4.20;;;11.40;99.90;;;;;;5000371;28;20210;-74
2022/01/01 18:01:07;;;;;;;7.07;4.50;;;11.40;99.90;;;;;;4994553;28;20199;-74
2022/01/01 18:03:39;;;;;;;4.80;4.03;;;11.40;99.90;;;;;;4996644;28;20191;-74
2022/01/01 18:06:06;;;;;;;7.90;4.10;;;11.30;99.90;;;;;;5005858;28;20250;-74
2022/01/01 18:08:35;;;;;;;8.52;4.45;;;11.40;99.90;;;;;;5017212;28;20672;-74
2022/01/01 18:11:14;;;;;;;8.52;5.40;;;11.30;99.90;;;;;;5007045;28;20616;-74
2022/01/01 18:13:43;;;;;;;7.95;4.43;;;11.00;99.90;;;;;;4996002;28;20176;-73
2022/01/01 18:16:09;;;;;;;7.57;4.97;;;11.40;99.90;;;;;;4995217;28;20271;-74
2022/01/01 18:18:51;;;;;;;6.38;4.53;;;11.20;99.90;;;;;;4994625;28;20196;-74
2022/01/01 18:21:19;;;;;;;6.55;4.40;;;11.20;99.90;;;;;;4995951;28;20172;-74
2022/01/01 18:23:53;;;;;;;9.63;5.03;;;11.40;99.90;;;;;;4996031;28;20187;-74
2022/01/01 18:26:27;;;;;;;12.65;7.28;;;11.20;99.90;;;;;;4994619;28;20223;-74
2022/01/01 18:28:54;;;;;;;6.38;4.95;;;11.20;99.90;;;;;;4995487;28;20227;-74
2022/01/01 18:31:20;;;;;;;8.13;4.53;;;11.20;99.90;;;;;;4995846;28;20181;-74
2022/01/01 18:33:46;;;;;;;9.70;5.00;;;11.20;99.90;;;;;;4995675;28;20506;-74
2022/01/01 18:36:13;;;;;;;6.97;4.50;;;11.20;99.90;;;;;;4995673;28;20195;-74
2022/01/01 18:38:41;;;;;;;7.30;4.30;;;11.10;99.90;;;;;;4995078;28;20211;-74
2022/01/01 18:41:06;;;;;;;6.10;4.15;;;11.10;99.90;;;;;;4995526;28;20176;-74
2022/01/01 18:43:32;;;;;;;7.00;4.20;;;11.20;99.90;;;;;;4995594;28;20556;-74
2022/01/01 18:45:59;;;;;;;6.97;4.10;;;11.20;99.90;;;;;;4995462;28;20172;-74
2022/01/01 18:48:25;;;;;;;7.38;4.00;;;11.20;99.90;;;;;;4993759;28;20451;-74
2022/01/01 18:51:02;;;;;;;8.43;4.95;;;11.20;99.90;;;;;;4995259;28;20204;-74
2022/01/01 18:53:33;;;;;;;7.15;4.18;;;11.20;99.90;;;;;;4994809;28;20176;-74
2022/01/01 18:56:00;;;;;;;6.22;4.10;;;11.20;99.90;;;;;;4995564;28;20188;-74
2022/01/01 18:58:33;;;;;;;5.63;3.90;;;11.20;99.90;;;;;;4994682;28;20571;-74
2022/01/01 19:01:00;;;;;;;4.22;3.75;;;11.20;99.90;;;;;;5010080;28;20181;-75
2022/01/01 19:03:28;;;;;;;10.65;3.83;;;11.20;99.90;;;;;;4993929;28;20248;-75
2022/01/01 19:05:58;;;;;;;4.65;3.70;;;11.20;99.90;;;;;;5002643;28;20195;-75
2022/01/01 19:08:35;;;;;;;6.07;4.00;;;11.20;99.90;;;;;;5001333;28;20834;-74
2022/01/01 19:11:11;;;;;;;6.43;3.58;;;11.10;99.90;;;;;;5002323;28;20516;-74
2022/01/01 19:13:50;;;;;;;6.03;3.70;;;11.20;99.90;;;;;;5003336;28;20198;-74
2022/01/01 19:16:18;;;;;;;4.75;4.03;;;11.10;99.90;;;;;;5003275;28;20178;-74
2022/01/01 19:18:45;;;;;;;4.22;3.63;;;11.10;99.90;;;;;;5014088;28;20253;-74
2022/01/01 19:21:11;;;;;;;4.75;3.47;;;11.10;99.90;;;;;;5014453;28;20180;-74
2022/01/01 19:23:37;;;;;;;4.40;3.50;;;11.10;99.90;;;;;;4996747;28;20274;-74
2022/01/01 19:26:03;;;;;;;5.37;3.80;;;11.10;99.90;;;;;;5014483;28;20171;-74
2022/01/01 19:28:35;;;;;;;4.75;3.40;;;11.10;99.90;;;;;;5015751;28;20218;-74
2022/01/01 19:31:02;;;;;;;6.05;3.10;;;11.10;99.90;;;;;;5014531;28;20207;-74
2022/01/01 19:33:33;;;;;;;5.63;4.05;;;11.10;99.90;;;;;;5012967;28;20172;-74
2022/01/01 19:35:59;;;;;;;5.50;3.38;;;11.10;99.90;;;;;;5014408;28;20195;-74
2022/01/01 19:38:26;;;;;;;4.80;3.67;;;11.10;99.90;;;;;;5011852;28;20223;-74
2022/01/01 19:41:10;;;;;;;8.25;4.43;;;11.10;99.90;;;;;;5014156;28;20175;-74
2022/01/01 19:43:53;;;;;;;5.10;3.95;;;11.10;99.90;;;;;;5013649;28;20168;-74
2022/01/01 19:46:23;;;;;;;5.80;4.65;;;11.00;99.90;;;;;;5012700;28;20179;-74
2022/01/01 19:48:55;;;;;;;6.22;4.70;;;11.00;99.90;;;;;;5012320;28;20293;-74
2022/01/01 19:51:20;;;;;;;6.72;4.38;;;11.00;99.90;;;;;;5013595;28;20179;-74
2022/01/01 19:53:46;;;;;;;4.00;3.60;;;11.00;99.90;;;;;;5013703;28;20175;-74
2022/01/01 19:56:12;;;;;;;6.25;4.00;;;11.00;99.90;;;;;;5013847;28;20531;-74
2022/01/01 19:58:37;;;;;;;5.27;3.83;;;11.00;99.90;;;;;;5012085;28;20278;-74
2022/01/01 20:01:03;;;;;;;5.97;4.10;;;11.00;99.90;;;;;;5011893;28;20188;-74
2022/01/01 20:03:29;;;;;;;5.00;3.37;;;10.90;99.90;;;;;;5012556;28;20525;-74
2022/01/01 20:05:54;;;;;;;6.50;4.07;;;10.90;99.90;;;;;;5010532;28;20195;-74
2022/01/01 20:08:20;;;;;;;5.73;3.80;;;10.90;99.90;;;;;;5011266;28;20290;-74
2022/01/01 20:10:46;;;;;;;7.80;3.30;;;10.90;99.90;;;;;;5013276;28;20745;-74
2022/01/01 20:13:12;;;;;;;5.07;3.87;;;10.90;99.90;;;;;;5013452;28;20449;-74
2022/01/01 20:15:37;;;;;;;5.13;3.53;;;10.80;99.90;;;;;;5013369;28;20187;-73
2022/01/01 20:18:03;;;;;;;4.80;3.10;;;10.80;99.90;;;;;;5013287;28;20254;-74
2022/01/01 20:20:29;;;;;;;4.80;3.23;;;10.80;99.90;;;;;;5012139;28;20258;-74
2022/01/01 20:22:57;;;;;;;5.00;3.67;;;10.90;99.90;;;;;;5013188;28;20411;-74
2022/01/01 20:25:24;;;;;;;6.65;4.05;;;10.90;99.90;;;;;;5011631;28;20186;-74
2022/01/01 20:27:51;;;;;;;4.55;3.28;;;10.80;99.90;;;;;;5011993;28;20175;-74
2022/01/01 20:30:16;;;;;;;5.38;3.75;;;10.90;99.90;;;;;;5013003;28;20287;-73
2022/01/01 20:32:43;;;;;;;3.90;3.40;;;10.80;99.90;;;;;;5012023;28;20630;-74
2022/01/01 20:35:09;;;;;;;3.90;3.28;;;10.80;99.90;;;;;;5011155;28;20175;-73
2022/01/01 20:37:35;;;;;;;4.32;3.28;;;10.80;99.90;;;;;;5011801;28;20191;-74
2022/01/01 20:40:03;;;;;;;6.38;3.38;;;10.70;99.90;;;;;;5012277;28;20270;-75
2022/01/01 20:42:29;;;;;;;4.55;3.35;;;10.70;99.90;;;;;;5013161;28;20641;-75
2022/01/01 20:44:54;;;;;;;5.53;3.20;;;10.80;99.90;;;;;;5012142;28;20266;-75
2022/01/01 20:47:20;;;;;;;6.10;3.73;;;10.80;99.90;;;;;;5016176;28;20563;-75
2022/01/01 20:49:46;;;;;;;5.07;3.37;;;10.70;99.90;;;;;;5012687;28;20236;-75
2022/01/01 20:52:12;;;;;;;4.63;3.00;;;10.70;99.90;;;;;;5016192;28;20246;-75
2022/01/01 20:54:40;;;;;;;5.65;3.40;;;10.70;99.90;;;;;;5016972;28;20421;-75
2022/01/01 20:57:06;;;;;;;5.43;3.55;;;10.70;99.90;;;;;;5016999;28;20179;-75
2022/01/01 20:59:31;;;;;;;6.70;3.60;;;10.70;99.90;;;;;;5016490;28;20254;-75
2022/01/01 21:02:01;;;;;;;9.33;4.03;;;10.70;99.90;;;;;;5015678;28;20192;-75
2022/01/01 21:04:28;;;;;;;6.72;4.00;;;10.70;99.90;;;;;;5016763;28;20182;-75
2022/01/01 21:06:55;;;;;;;7.50;5.13;;;10.60;99.90;;;;;;5017014;28;20215;-74
2022/01/01 21:09:22;;;;;;;6.03;3.90;;;10.60;99.90;;;;;;5016107;28;20222;-75
2022/01/01 21:11:53;;;;;;;7.30;4.10;;;10.60;99.90;;;;;;5015818;28;20183;-75
2022/01/01 21:14:21;;;;;;;5.55;3.80;;;10.50;99.90;;;;;;5016588;28;20589;-74
2022/01/01 21:16:47;;;;;;;4.78;3.72;;;10.50;99.90;;;;;;5016711;28;20178;-75
2022/01/01 21:19:13;;;;;;;5.40;4.07;;;10.50;99.90;;;;;;5015984;28;20291;-74
2022/01/01 21:21:39;;;;;;;6.47;3.93;;;10.50;99.90;;;;;;5016444;28;20262;-74
2022/01/01 21:24:05;;;;;;;8.60;3.63;;;10.40;99.90;;;;;;5016472;28;20180;-74
2022/01/01 21:26:31;;;;;;;7.50;3.35;;;10.50;99.90;;;;;;5016415;28;20414;-74
2022/01/01 21:28:56;;;;;;;5.20;3.77;;;10.50;99.90;;;;;;5015941;28;20609;-74
2022/01/01 21:31:23;;;;;;;5.50;3.80;;;10.40;99.90;;;;;;5016308;28;20176;-74
2022/01/01 21:33:49;;;;;;;8.35;3.83;;;10.40;99.90;;;;;;5016295;28;20217;-74
2022/01/01 21:36:15;;;;;;;8.20;3.77;;;10.50;99.90;;;;;;5014915;28;20231;-74
2022/01/01 21:38:41;;;;;;;7.57;4.22;;;10.50;99.90;;;;;;5015880;28;20231;-74
2022/01/01 21:41:07;;;;;;;5.50;3.50;;;10.30;99.90;;;;;;5016277;28;20172;-74
2022/01/01 21:43:33;;;;;;;6.53;4.40;;;10.30;99.90;;;;;;5015408;28;20179;-74
2022/01/01 21:45:59;;;;;;;3.97;3.57;;;10.30;99.90;;;;;;5016059;28;20899;-74
2022/01/01 21:48:24;;;;;;;5.60;4.07;;;10.30;99.90;;;;;;5015604;28;20484;-74
2022/01/01 21:50:50;;;;;;;4.73;3.53;;;10.30;99.90;;;;;;5015971;28;20290;-74
2022/01/01 21:53:17;;;;;;;4.30;3.00;;;10.30;99.90;;;;;;5015940;28;20171;-74
2022/01/01 21:55:46;;;;;;;11.73;3.72;;;10.30;99.90;;;;;;5014507;28;20485;-74
2022/01/01 21:58:21;;;;;;;4.35;3.35;;;10.20;99.90;;;;;;5015502;28;20195;-74
2022/01/01 22:00:48;;;;;;;4.70;3.80;;;10.20;99.90;;;;;;5015943;28;20179;-74
2022/01/01 22:03:15;;;;;;;6.53;4.40;;;10.20;99.90;;;;;;5015381;28;20183;-74
2022/01/01 22:05:41;;;;;;;4.50;3.45;;;10.30;99.90;;;;;;5017133;28;20180;-74
2022/01/01 22:08:08;;;;;;;4.82;3.60;;;10.30;99.90;;;;;;4997856;28;20207;-74
2022/01/01 22:10:34;;;;;;;4.80;3.22;;;10.20;99.90;;;;;;5014284;28;20211;-74
2022/01/01 22:13:01;;;;;;;6.00;3.60;;;10.20;99.90;;;;;;5015756;28;20180;-74
2022/01/01 22:15:27;;;;;;;5.10;3.38;;;10.20;99.90;;;;;;5015234;28;20175;-74
2022/01/01 22:17:52;;;;;;;6.83;3.70;;;10.20;99.90;;;;;;5014903;28;20191;-74
2022/01/01 22:20:19;;;;;;;4.50;2.70;;;10.30;99.90;;;;;;5014244;28;20427;-74
2022/01/01 22:22:45;;;;;;;2.88;2.58;;;10.30;99.90;;;;;;5015284;28;20176;-74
2022/01/01 22:25:11;;;;;;;6.00;3.60;;;10.30;99.90;;;;;;5015588;28;20179;-74
2022/01/01 22:27:37;;;;;;;3.83;3.10;;;10.40;99.90;;;;;;5015181;28;20545;-74
2022/01/01 22:30:05;;;;;;;7.40;2.50;;;10.40;99.90;;;;;;5014151;28;20962;-73
2022/01/01 22:32:31;;;;;;;4.38;2.70;;;10.40;99.90;;;;;;5015204;28;20186;-74
2022/01/01 22:34:56;;;;;;;3.90;2.13;;;10.40;99.90;;;;;;5015139;28;20247;-74
2022/01/01 22:37:22;;;;;;;4.90;2.63;;;10.40;99.90;;;;;;5014957;28;20205;-75
2022/01/01 22:39:47;;;;;;;3.17;2.67;;;10.50;99.90;;;;;;5013585;28;20211;-74
2022/01/01 22:42:13;;;;;;;2.63;2.20;;;10.50;99.90;;;;;;5015035;28;20237;-74
2022/01/01 22:44:39;;;;;;;3.80;3.03;;;10.50;99.90;;;;;;5014856;28;20519;-75
2022/01/01 22:47:04;;;;;;;3.20;2.83;;;10.40;99.90;;;;;;5014973;28;20267;-74
2022/01/01 22:49:30;;;;;;;4.83;2.20;;;10.50;99.90;;;;;;5012444;28;20290;-74
2022/01/01 22:51:55;;;;;;;3.60;2.90;;;10.50;99.90;;;;;;5014759;28;20179;-74
2022/01/01 22:54:21;;;;;;;4.77;2.73;;;10.50;99.90;;;;;;5014969;28;20691;-74
2022/01/01 22:56:47;;;;;;;2.90;2.60;;;10.50;99.90;;;;;;5013437;28;20179;-74
2022/01/01 22:59:13;;;;;;;4.00;2.33;;;10.60;99.90;;;;;;5014222;28;20234;-74
2022/01/01 23:01:39;;;;;;;3.03;2.50;;;10.50;99.90;;;;;;5014832;28;20712;-75
2022/01/01 23:04:04;;;;;;;6.03;3.00;;;10.50;99.90;;;;;;5014655;28;20175;-73
2022/01/01 23:06:31;;;;;;;4.13;2.37;;;10.50;99.90;;;;;;5014687;28;20442;-74
2022/01/01 23:08:57;;;;;;;4.75;3.17;;;10.50;99.90;;;;;;5012922;28;20721;-74
2022/01/01 23:11:22;;;;;;;3.90;2.23;;;10.50;99.90;;;;;;5014559;28;20203;-74
2022/01/01 23:13:48;;;;;;;3.17;2.87;;;10.50;99.90;;;;;;5013896;28;20423;-74
2022/01/01 23:16:16;;;;;;;4.03;3.00;;;10.50;99.90;;;;;;4996962;28;20184;-74
2022/01/01 23:18:55;;;;;;;4.85;2.42;;;10.50;99.90;;;;;;5013902;28;20196;-75
2022/01/01 23:21:25;;;;;;;5.70;2.55;;;10.40;99.90;;;;;;5013921;28;20585;-74
2022/01/01 23:23:53;;;;;;;5.38;2.60;;;10.40;99.90;;;;;;5016421;28;20211;-74
2022/01/01 23:26:24;;;;;;;2.65;2.42;;;10.40;99.90;;;;;;5014184;28;20191;-74
2022/01/01 23:28:55;;;;;;;3.28;2.45;;;10.40;99.90;;;;;;5013962;28;20561;-75
2022/01/01 23:31:28;;;;;;;3.92;2.92;;;10.40;99.90;;;;;;5014118;28;20652;-74
2022/01/01 23:33:57;;;;;;;3.97;3.38;;;10.40;99.90;;;;;;5014187;28;20174;-74
2022/01/01 23:36:25;;;;;;;3.78;3.20;;;10.30;99.90;;;;;;5014076;28;20195;-74
2022/01/01 23:38:51;;;;;;;3.70;3.25;;;10.40;99.90;;;;;;5012448;28;20223;-74
2022/01/01 23:41:17;;;;;;;4.78;2.75;;;10.40;99.90;;;;;;5014017;28;20601;-74
2022/01/01 23:43:43;;;;;;;3.73;2.33;;;10.40;99.90;;;;;;5012884;28;20203;-74
2022/01/01 23:46:11;;;;;;;3.65;3.10;;;10.40;99.90;;;;;;5012709;28;20175;-74
2022/01/01 23:48:36;;;;;;;4.35;2.50;;;10.40;99.90;;;;;;5013593;28;20199;-74
2022/01/01 23:51:04;;;;;;;6.90;3.10;;;10.40;99.90;;;;;;5012522;28;20261;-74
2022/01/01 23:53:33;;;;;;;3.17;2.20;;;10.30;99.90;;;;;;5013287;28;20176;-74
2022/01/01 23:56:07;;;;;;;4.97;3.47;;;10.40;99.90;;;;;;5013874;28;20621;-74
2022/01/01 23:59:04;;;;;;;5.13;2.88;;;10.40;99.90;;;;;;5013667;28;20230;-74
